Time;durP1;ratioP1;P1;durP2;ratioP2;P2;SDS_P1;SDS_P2;PMS_P1;PMS_P2;Temp;Humidity;BMP_temperature;BMP_pressure;BME280_temperature;BME280_humidity;BME280_pressure;Samples;Min_cycle;Max_cycle;Signal;HPM_P1;HPM_P2
2023/03/02 00:02:19;;;;;;;;;;;;;;;4.34;44.11;101228.38;5008427;28;6994;-76
2023/03/02 00:04:52;;;;;;;;;;;;;;;4.35;43.31;101227.63;5011113;28;6816;-76
2023/03/02 00:07:31;;;;;;;;;;;;;;;4.39;43.42;101222.03;4998054;28;7020;-77
2023/03/02 00:09:58;;;;;;;;;;;;;;;4.43;43.89;101228.28;5012286;28;6811;-76
2023/03/02 00:12:27;;;;;;;;;;;;;;;4.49;43.72;101225.38;5028936;28;6792;-77
2023/03/02 00:14:53;;;;;;;;;;;;;;;4.53;43.78;101228.31;5004763;28;9098;-76
2023/03/02 00:17:26;;;;;;;;;;;;;;;4.57;43.55;101232.91;5008164;28;6793;-77
2023/03/02 00:20:10;;;;;;;;;;;;;;;4.58;43.53;101232.13;5031964;28;6999;-76
2023/03/02 00:22:46;;;;;;;;;;;;;;;4.59;43.63;101228.84;5011549;28;7019;-77
2023/03/02 00:25:14;;;;;;;;;;;;;;;4.61;43.63;101225.53;5028877;28;7740;-76
2023/03/02 00:27:40;;;;;;;;;;;;;;;4.62;43.88;101218.06;5010514;28;8466;-76
2023/03/02 00:30:09;;;;;;;;;;;;;;;4.62;44.32;101223.13;5013140;28;6839;-75
2023/03/02 00:32:35;;;;;;;;;;;;;;;4.63;43.57;101224.91;5007353;28;11059;-74
2023/03/02 00:35:01;;;;;;;;;;;;;;;4.64;44.32;101228.34;5015246;28;6804;-75
2023/03/02 00:37:27;;;;;;;;;;;;;;;4.62;44.01;101228.22;5016304;28;7233;-76
2023/03/02 00:39:53;;;;;;;;;;;;;;;4.61;44.06;101228.06;5020475;28;6780;-76
2023/03/02 00:42:20;;;;;;;;;;;;;;;4.60;44.28;101229.75;5011317;28;6976;-76
2023/03/02 00:44:46;;;;;;;;;;;;;;;4.58;43.61;101228.69;5011186;28;6800;-76
2023/03/02 00:47:12;;;;;;;;;;;;;;;4.56;43.80;101231.13;5000550;28;8850;-74
2023/03/02 00:49:38;;;;;;;;;;;;;;;4.53;43.97;101227.44;5015886;28;6978;-76
2023/03/02 00:52:05;;;;;;;;;;;;;;;4.50;44.46;101225.50;5001298;28;7311;-76
2023/03/02 00:54:31;;;;;;;;;;;;;;;4.48;43.81;101227.03;5013907;28;6792;-76
2023/03/02 00:56:57;;;;;;;;;;;;;;;4.44;44.51;101219.91;5017169;28;7170;-75
2023/03/02 00:59:25;;;;;;;;;;;;;;;4.42;44.52;101223.97;4997973;28;7787;-76
2023/03/02 01:01:58;;;;;;;;;;;;;;;4.38;44.38;101224.47;4995002;28;7012;-76
2023/03/02 01:04:32;;;;;;;;;;;;;;;4.36;44.62;101223.44;5013095;28;7280;-76
2023/03/02 01:07:05;;;;;;;;;;;;;;;4.34;44.50;101215.69;5025444;28;6800;-75
2023/03/02 01:09:31;;;;;;;;;;;;;;;4.31;44.75;101211.25;5006458;28;7250;-76
2023/03/02 01:11:57;;;;;;;;;;;;;;;4.30;45.29;101209.47;5009016;28;6796;-76
2023/03/02 01:14:23;;;;;;;;;;;;;;;4.27;44.61;101209.22;4991110;28;8786;-74
2023/03/02 01:16:49;;;;;;;;;;;;;;;4.25;44.60;101215.81;5026773;28;6836;-76
2023/03/02 01:19:16;;;;;;;;;;;;;;;4.23;45.54;101213.88;5009364;28;7218;-75
2023/03/02 01:21:42;;;;;;;;;;;;;;;4.19;45.74;101205.13;5013494;28;6870;-76
2023/03/02 01:24:10;;;;;;;;;;;;;;;4.18;45.43;101200.78;5031010;28;6859;-76
2023/03/02 01:26:36;;;;;;;;;;;;;;;4.15;44.81;101203.94;4997247;28;8536;-74
2023/03/02 01:29:02;;;;;;;;;;;;;;;4.13;45.10;101199.50;5017309;28;6803;-77
2023/03/02 01:31:29;;;;;;;;;;;;;;;4.11;45.23;101196.84;5021569;28;6975;-74
2023/03/02 01:33:55;;;;;;;;;;;;;;;4.06;44.51;101193.00;5013108;28;7343;-76
2023/03/02 01:36:22;;;;;;;;;;;;;;;4.02;44.72;101186.78;5001578;28;6957;-76
2023/03/02 01:38:49;;;;;;;;;;;;;;;3.97;45.65;101188.03;5002375;28;6992;-76
2023/03/02 01:41:16;;;;;;;;;;;;;;;3.91;44.55;101182.41;4998715;28;8516;-76
2023/03/02 01:43:42;;;;;;;;;;;;;;;3.84;45.69;101178.47;5017474;28;6792;-76
2023/03/02 01:46:25;;;;;;;;;;;;;;;3.77;45.47;101167.63;5028005;28;6950;-75
2023/03/02 01:48:58;;;;;;;;;;;;;;;3.70;45.24;101172.16;5019615;28;7307;-76
2023/03/02 01:51:27;;;;;;;;;;;;;;;3.65;44.72;101175.94;5008518;28;6987;-76
2023/03/02 01:54:04;;;;;;;;;;;;;;;3.59;45.64;101170.34;5026876;28;8417;-74
2023/03/02 01:56:36;;;;;;;;;;;;;;;3.55;46.01;101170.81;5012119;28;7824;-77
2023/03/02 01:59:10;;;;;;;;;;;;;;;3.51;46.19;101171.31;5000736;28;7069;-75
2023/03/02 02:01:41;;;;;;;;;;;;;;;3.49;45.79;101171.16;5007399;28;6904;-77
2023/03/02 02:04:08;;;;;;;;;;;;;;;3.47;46.41;101168.47;4992397;28;6966;-76
2023/03/02 02:06:49;;;;;;;;;;;;;;;3.49;46.63;101158.47;4992056;28;7049;-75
2023/03/02 02:09:19;;;;;;;;;;;;;;;3.49;46.33;101165.22;5018060;28;7447;-76
2023/03/02 02:11:46;;;;;;;;;;;;;;;3.47;46.33;101160.88;5015054;28;6800;-76
2023/03/02 02:14:12;;;;;;;;;;;;;;;3.47;45.94;101158.34;4993658;28;7378;-76
2023/03/02 02:16:40;;;;;;;;;;;;;;;3.46;46.29;101159.09;5011899;28;6783;-74
2023/03/02 02:19:36;;;;;;;;;;;;;;;3.46;46.20;101154.03;4995962;28;7361;-76
2023/03/02 02:22:03;;;;;;;;;;;;;;;3.45;46.53;101156.44;5015154;28;7234;-75
2023/03/02 02:24:50;;;;;;;;;;;;;;;3.41;45.92;101145.13;5013557;28;7861;-76
2023/03/02 02:27:15;;;;;;;;;;;;;;;3.41;46.22;101147.66;5000471;28;7134;-76
2023/03/02 02:29:48;;;;;;;;;;;;;;;3.40;46.31;101150.06;5014706;28;6963;-75
2023/03/02 02:32:31;;;;;;;;;;;;;;;3.39;46.64;101153.34;5009478;28;6800;-76
2023/03/02 02:35:26;;;;;;;;;;;;;;;3.35;46.36;101141.19;5011958;28;6966;-75
2023/03/02 02:38:05;;;;;;;;;;;;;;;3.32;46.35;101146.84;5016640;28;6804;-75
2023/03/02 02:40:54;;;;;;;;;;;;;;;3.31;47.00;101145.06;5012544;28;7122;-75
2023/03/02 02:43:22;;;;;;;;;;;;;;;3.28;46.92;101149.84;4997954;28;7056;-75
2023/03/02 02:45:55;;;;;;;;;;;;;;;3.25;46.20;101145.41;5010682;28;6799;-74
2023/03/02 02:48:26;;;;;;;;;;;;;;;3.24;46.83;101147.81;5012271;28;6847;-76
2023/03/02 02:50:59;;;;;;;;;;;;;;;3.19;46.39;101143.22;4992857;28;7001;-76
2023/03/02 02:54:02;;;;;;;;;;;;;;;3.18;46.38;101136.34;4995139;28;7006;-76
2023/03/02 02:56:33;;;;;;;;;;;;;;;3.17;47.05;101139.66;5007180;28;7256;-76
2023/03/02 02:59:18;;;;;;;;;;;;;;;3.20;46.87;101141.56;5002552;28;7033;-76
2023/03/02 03:01:46;;;;;;;;;;;;;;;3.18;47.05;101138.00;5024464;28;6819;-76
2023/03/02 03:04:19;;;;;;;;;;;;;;;3.19;47.51;101138.16;5028585;28;6796;-74
2023/03/02 03:06:53;;;;;;;;;;;;;;;3.20;46.75;101136.50;4993342;28;7217;-76
2023/03/02 03:09:19;;;;;;;;;;;;;;;3.23;47.00;101140.97;5024610;28;6804;-76
2023/03/02 03:11:57;;;;;;;;;;;;;;;3.24;47.60;101130.06;5009839;28;7397;-74
2023/03/02 03:14:35;;;;;;;;;;;;;;;3.27;47.69;101130.34;4994070;28;6987;-75
2023/03/02 03:17:01;;;;;;;;;;;;;;;3.28;47.83;101130.47;5021917;28;6828;-76
2023/03/02 03:19:32;;;;;;;;;;;;;;;3.30;47.66;101126.44;5010392;28;7194;-74
2023/03/02 03:22:01;;;;;;;;;;;;;;;3.32;47.72;101126.59;5013218;28;6808;-76
2023/03/02 03:24:30;;;;;;;;;;;;;;;3.33;47.45;101130.91;5013607;28;6804;-74
2023/03/02 03:26:57;;;;;;;;;;;;;;;3.33;47.04;101125.81;5010281;28;7035;-76
2023/03/02 03:29:27;;;;;;;;;;;;;;;3.34;47.23;101135.19;5015179;28;7222;-75
2023/03/02 03:31:55;;;;;;;;;;;;;;;3.34;46.43;101130.13;4993078;28;8605;-76
2023/03/02 03:34:22;;;;;;;;;;;;;;;3.33;46.64;101133.44;5009412;28;6824;-76
2023/03/02 03:36:48;;;;;;;;;;;;;;;3.33;47.15;101128.34;5011210;28;7235;-76
2023/03/02 03:39:15;;;;;;;;;;;;;;;3.33;47.58;101135.97;5016249;28;6938;-77
2023/03/02 03:41:41;;;;;;;;;;;;;;;3.31;46.57;101127.34;5012834;28;6823;-76
2023/03/02 03:44:07;;;;;;;;;;;;;;;3.30;47.79;101131.50;4994446;28;8066;-77
2023/03/02 03:46:33;;;;;;;;;;;;;;;3.30;47.82;101128.09;5011954;28;6796;-76
2023/03/02 03:48:59;;;;;;;;;;;;;;;3.28;47.55;101134.66;5014366;28;7026;-76
2023/03/02 03:51:25;;;;;;;;;;;;;;;3.26;46.77;101126.03;5010721;28;7085;-76
2023/03/02 03:54:00;;;;;;;;;;;;;;;3.24;47.27;101128.44;5006152;28;6982;-76
2023/03/02 03:56:33;;;;;;;;;;;;;;;3.19;47.31;101125.50;5009748;28;6979;-76
2023/03/02 03:59:07;;;;;;;;;;;;;;;3.16;46.96;101121.78;4996520;28;7268;-74
2023/03/02 04:01:55;;;;;;;;;;;;;;;3.15;47.15;101127.63;5008814;28;6828;-74
2023/03/02 04:04:26;;;;;;;;;;;;;;;3.12;47.48;101120.63;4998460;28;7191;-74
2023/03/02 04:06:52;;;;;;;;;;;;;;;3.12;47.32;101114.66;5008452;28;6991;-74
2023/03/02 04:09:18;;;;;;;;;;;;;;;3.11;46.99;101116.31;5007146;28;7200;-74
2023/03/02 04:11:50;;;;;;;;;;;;;;;3.11;47.73;101118.84;5031316;28;6835;-74
2023/03/02 04:14:18;;;;;;;;;;;;;;;3.13;47.80;101124.94;5026753;28;6795;-75
2023/03/02 04:16:44;;;;;;;;;;;;;;;3.13;47.95;101124.94;5007782;28;6852;-74
2023/03/02 04:19:11;;;;;;;;;;;;;;;3.15;47.12;101117.50;5030287;28;6986;-74
2023/03/02 04:21:47;;;;;;;;;;;;;;;3.15;47.40;101118.34;5011584;28;6806;-74
2023/03/02 04:24:19;;;;;;;;;;;;;;;3.16;47.32;101116.72;5004591;28;6800;-74
2023/03/02 04:26:47;;;;;;;;;;;;;;;3.16;47.50;101120.13;5020235;28;6965;-74
2023/03/02 04:29:14;;;;;;;;;;;;;;;3.16;47.31;101116.72;5011610;28;6959;-74
2023/03/02 04:31:40;;;;;;;;;;;;;;;3.16;48.39;101122.66;5026284;28;6784;-74
2023/03/02 04:34:07;;;;;;;;;;;;;;;3.15;47.66;101120.03;5011546;28;8703;-74
2023/03/02 04:36:36;;;;;;;;;;;;;;;3.14;48.00;101115.69;5010318;28;6945;-73
2023/03/02 04:39:04;;;;;;;;;;;;;;;3.14;47.04;101118.22;5008712;28;6792;-75
2023/03/02 04:41:30;;;;;;;;;;;;;;;3.13;47.24;101116.44;5010495;28;6800;-74
2023/03/02 04:43:55;;;;;;;;;;;;;;;3.13;47.65;101113.91;5004474;28;6999;-74
2023/03/02 04:46:25;;;;;;;;;;;;;;;3.13;48.03;101114.81;5012065;28;7261;-74
2023/03/02 04:48:52;;;;;;;;;;;;;;;3.12;48.45;101117.19;5002358;28;8081;-74
2023/03/02 04:51:32;;;;;;;;;;;;;;;3.11;48.19;101118.84;5000598;28;7136;-75
2023/03/02 04:54:04;;;;;;;;;;;;;;;3.08;48.62;101118.56;5006890;28;7137;-75
2023/03/02 04:56:30;;;;;;;;;;;;;;;3.07;48.22;101118.44;5005408;28;6969;-75
2023/03/02 04:58:57;;;;;;;;;;;;;;;3.06;48.12;101117.53;5000554;28;7145;-75
2023/03/02 05:01:24;;;;;;;;;;;;;;;3.05;48.66;101129.31;5002855;28;7286;-75
2023/03/02 05:03:50;;;;;;;;;;;;;;;3.04;48.03;101124.13;5004555;28;6803;-75
2023/03/02 05:06:16;;;;;;;;;;;;;;;3.03;47.93;101129.94;5008264;28;6863;-75
2023/03/02 05:08:43;;;;;;;;;;;;;;;3.02;48.66;101126.50;5001322;28;8175;-75
2023/03/02 05:11:20;;;;;;;;;;;;;;;3.01;47.52;101124.72;5003198;28;6931;-75
2023/03/02 05:13:52;;;;;;;;;;;;;;;3.02;48.29;101130.69;5010289;28;7242;-75
2023/03/02 05:16:18;;;;;;;;;;;;;;;3.01;47.77;101129.78;5011409;28;6796;-75
2023/03/02 05:18:44;;;;;;;;;;;;;;;3.02;47.61;101131.56;5020343;28;6812;-75
2023/03/02 05:21:11;;;;;;;;;;;;;;;3.04;47.59;101139.31;5014864;28;6804;-75
2023/03/02 05:23:37;;;;;;;;;;;;;;;3.03;47.78;101133.34;5008909;28;6828;-75
2023/03/02 05:26:03;;;;;;;;;;;;;;;3.04;47.68;101132.63;4992792;28;7291;-75
2023/03/02 05:28:28;;;;;;;;;;;;;;;3.02;48.11;101129.03;5011438;28;7134;-75
2023/03/02 05:30:54;;;;;;;;;;;;;;;3.03;47.50;101130.81;5015320;28;6807;-75
2023/03/02 05:33:20;;;;;;;;;;;;;;;3.04;47.94;101131.72;5012958;28;8415;-75
2023/03/02 05:35:46;;;;;;;;;;;;;;;3.03;48.50;101127.41;5024666;28;6803;-75
2023/03/02 05:38:12;;;;;;;;;;;;;;;3.00;48.14;101122.94;5009587;28;6976;-75
2023/03/02 05:40:41;;;;;;;;;;;;;;;3.00;48.44;101122.06;5011806;28;6808;-75
2023/03/02 05:43:08;;;;;;;;;;;;;;;2.98;47.62;101123.53;5012990;28;6795;-75
2023/03/02 05:45:37;;;;;;;;;;;;;;;2.97;48.66;101127.75;5011826;28;6820;-75
2023/03/02 05:48:04;;;;;;;;;;;;;;;2.97;48.43;101131.91;5019449;28;7015;-75
2023/03/02 05:50:31;;;;;;;;;;;;;;;2.96;48.56;101130.13;5011761;28;7892;-75
2023/03/02 05:52:59;;;;;;;;;;;;;;;2.96;47.55;101136.09;4999509;28;10617;-75
2023/03/02 05:55:25;;;;;;;;;;;;;;;2.96;48.26;101141.16;5011163;28;9946;-75
2023/03/02 05:57:51;;;;;;;;;;;;;;;2.97;48.23;101136.97;5008670;28;10661;-75
2023/03/02 06:00:19;;;;;;;;;;;;;;;2.95;48.32;101143.53;4990760;28;9654;-75
2023/03/02 06:02:45;;;;;;;;;;;;;;;2.95;47.70;101131.78;5013239;28;7239;-75
2023/03/02 06:05:16;;;;;;;;;;;;;;;2.93;47.69;101135.78;5005529;28;7089;-75
2023/03/02 06:07:42;;;;;;;;;;;;;;;2.94;48.01;101136.69;5008935;28;7308;-75
2023/03/02 06:10:11;;;;;;;;;;;;;;;2.94;48.71;101129.09;5006122;28;7187;-74
2023/03/02 06:12:38;;;;;;;;;;;;;;;2.94;47.99;101137.56;5028314;28;6807;-74
2023/03/02 06:15:06;;;;;;;;;;;;;;;2.94;48.13;101141.75;5011647;28;6977;-74
2023/03/02 06:17:32;;;;;;;;;;;;;;;2.95;48.27;101139.38;5019442;28;7047;-74
2023/03/02 06:19:58;;;;;;;;;;;;;;;2.94;48.42;101139.22;5015124;28;6804;-74
2023/03/02 06:22:23;;;;;;;;;;;;;;;2.94;48.23;101139.22;5012392;28;6860;-74
2023/03/02 06:24:49;;;;;;;;;;;;;;;2.92;47.83;101137.47;5017604;28;6830;-74
2023/03/02 06:27:15;;;;;;;;;;;;;;;2.94;48.15;101136.69;4984859;28;6944;-74
2023/03/02 06:29:41;;;;;;;;;;;;;;;2.94;47.54;101136.69;5002985;28;6863;-74
2023/03/02 06:32:07;;;;;;;;;;;;;;;2.92;47.96;101140.00;5015560;28;7130;-74
2023/03/02 06:34:33;;;;;;;;;;;;;;;2.91;48.16;101140.75;4992061;28;6792;-74
2023/03/02 06:36:58;;;;;;;;;;;;;;;2.92;47.73;101150.13;5011716;28;6776;-74
2023/03/02 06:39:24;;;;;;;;;;;;;;;2.90;48.38;101150.72;4996465;28;6836;-74
2023/03/02 06:41:50;;;;;;;;;;;;;;;2.89;47.80;101139.69;4998415;28;6792;-74
2023/03/02 06:44:17;;;;;;;;;;;;;;;2.89;47.63;101142.22;5013529;28;6950;-74
2023/03/02 06:46:43;;;;;;;;;;;;;;;2.90;47.73;101146.56;5015931;28;6976;-74
2023/03/02 06:49:10;;;;;;;;;;;;;;;2.90;48.33;101150.72;5000657;28;6800;-75
2023/03/02 06:51:37;;;;;;;;;;;;;;;2.91;48.67;101150.88;5001012;28;7007;-74
2023/03/02 06:54:05;;;;;;;;;;;;;;;2.92;48.62;101147.59;4997676;28;7181;-74
2023/03/02 06:56:31;;;;;;;;;;;;;;;2.96;48.70;101142.78;5022254;28;6981;-74
2023/03/02 06:58:57;;;;;;;;;;;;;;;2.97;47.97;101142.03;5003771;28;7114;-74
2023/03/02 07:01:23;;;;;;;;;;;;;;;2.99;47.59;101151.56;4997405;28;11344;-74
2023/03/02 07:03:48;;;;;;;;;;;;;;;3.04;48.39;101149.44;5009359;28;6784;-74
2023/03/02 07:06:14;;;;;;;;;;;;;;;3.06;48.29;101147.94;5003626;28;7370;-74
2023/03/02 07:08:40;;;;;;;;;;;;;;;3.10;48.39;101146.56;5007833;28;6804;-74
2023/03/02 07:11:11;;;;;;;;;;;;;;;3.13;47.65;101139.22;5010534;28;6943;-74
2023/03/02 07:13:38;;;;;;;;;;;;;;;3.17;48.53;101142.19;5008664;28;7072;-74
2023/03/02 07:16:10;;;;;;;;;;;;;;;3.22;48.54;101140.06;4992146;28;7284;-74
2023/03/02 07:18:36;;;;;;;;;;;;;;;3.28;48.35;101149.84;5009984;28;6829;-74
2023/03/02 07:21:02;;;;;;;;;;;;;;;3.32;47.93;101151.91;5003476;28;7047;-74
2023/03/02 07:23:28;;;;;;;;;;;;;;;3.38;47.53;101152.47;5007155;28;6879;-75
2023/03/02 07:25:54;;;;;;;;;;;;;;;3.42;48.90;101148.53;5002105;28;7058;-74
2023/03/02 07:28:22;;;;;;;;;;;;;;;3.47;47.79;101148.19;5022290;28;7415;-74
2023/03/02 07:30:52;;;;;;;;;;;;;;;3.52;48.00;101157.88;5009112;28;6799;-75
2023/03/02 07:33:21;;;;;;;;;;;;;;;3.57;47.50;101154.97;5008356;28;7741;-75
2023/03/02 07:35:47;;;;;;;;;;;;;;;3.63;47.86;101154.63;5009851;28;6864;-75
2023/03/02 07:38:12;;;;;;;;;;;;;;;3.68;48.64;101150.88;5009810;28;7187;-74
2023/03/02 07:40:42;;;;;;;;;;;;;;;3.74;48.02;101145.44;5024124;28;7076;-74
2023/03/02 07:43:09;;;;;;;;;;;;;;;3.80;48.39;101148.50;4994653;28;6967;-75
2023/03/02 07:45:37;;;;;;;;;;;;;;;3.86;47.92;101154.09;5003432;28;6800;-74
2023/03/02 07:48:03;;;;;;;;;;;;;;;3.92;48.67;101153.75;5004210;28;7041;-74
2023/03/02 07:50:30;;;;;;;;;;;;;;;3.98;48.09;101156.84;5007263;28;7912;-74
2023/03/02 07:52:57;;;;;;;;;;;;;;;4.05;48.63;101157.34;4997539;28;7163;-75
2023/03/02 07:55:22;;;;;;;;;;;;;;;4.11;48.51;101157.88;5005457;28;6816;-74
2023/03/02 07:57:49;;;;;;;;;;;;;;;4.19;48.67;101161.06;5008748;28;6936;-74
2023/03/02 08:00:16;;;;;;;;;;;;;;;4.25;48.02;101159.06;5004591;28;7082;-75
2023/03/02 08:02:42;;;;;;;;;;;;;;;4.31;47.95;101155.41;5021622;28;7029;-75
2023/03/02 08:05:10;;;;;;;;;;;;;;;4.39;48.85;101156.03;5000858;28;6990;-75
2023/03/02 08:07:35;;;;;;;;;;;;;;;4.47;48.31;101161.78;4990043;28;6795;-75
2023/03/02 08:10:02;;;;;;;;;;;;;;;4.55;48.54;101149.75;5020173;28;7161;-75
2023/03/02 08:12:28;;;;;;;;;;;;;;;4.62;48.33;101152.03;5021399;28;7130;-75
2023/03/02 08:14:54;;;;;;;;;;;;;;;4.69;47.77;101148.34;4986769;28;7106;-75
2023/03/02 08:17:20;;;;;;;;;;;;;;;4.77;47.63;101159.16;4989921;28;7062;-75
2023/03/02 08:19:45;;;;;;;;;;;;;;;4.83;48.12;101152.94;5021882;28;6791;-75
2023/03/02 08:22:11;;;;;;;;;;;;;;;4.92;48.07;101152.81;4977228;28;7021;-75
2023/03/02 08:24:37;;;;;;;;;;;;;;;5.00;47.72;101150.91;5018384;28;6827;-75
2023/03/02 08:27:03;;;;;;;;;;;;;;;5.09;47.77;101149.13;5022010;28;6783;-75
2023/03/02 08:29:29;;;;;;;;;;;;;;;5.20;47.30;101154.19;4989116;28;7364;-75
2023/03/02 08:31:55;;;;;;;;;;;;;;;5.30;46.75;101156.72;5029753;28;6962;-75
2023/03/02 08:34:20;;;;;;;;;;;;;;;5.39;46.91;101157.47;5004284;28;7177;-75
2023/03/02 08:36:46;;;;;;;;;;;;;;;5.48;46.49;101159.88;5007581;28;7176;-75
2023/03/02 08:39:12;;;;;;;;;;;;;;;5.56;46.40;101148.66;5026296;28;6978;-75
2023/03/02 08:41:38;;;;;;;;;;;;;;;5.65;46.32;101155.22;5010963;28;7210;-75
2023/03/02 08:44:03;;;;;;;;;;;;;;;5.72;46.32;101149.00;5007937;28;6783;-76
2023/03/02 08:46:30;;;;;;;;;;;;;;;5.79;45.87;101147.06;5014246;28;6779;-76
2023/03/02 08:48:56;;;;;;;;;;;;;;;5.85;45.76;101139.03;5010375;28;6792;-76
2023/03/02 08:51:24;;;;;;;;;;;;;;;5.93;45.64;101134.53;5002077;28;7580;-75
2023/03/02 08:53:54;;;;;;;;;;;;;;;6.00;45.50;101135.91;5013011;28;6830;-76
2023/03/02 08:56:27;;;;;;;;;;;;;;;6.07;45.29;101136.53;5015088;28;8285;-76
2023/03/02 08:58:58;;;;;;;;;;;;;;;6.16;45.62;101138.03;5013121;28;6946;-76
2023/03/02 09:01:28;;;;;;;;;;;;;;;6.23;45.21;101127.56;5023333;28;6949;-76
2023/03/02 09:03:56;;;;;;;;;;;;;;;6.31;45.25;101131.56;5013599;28;6824;-76
2023/03/02 09:06:22;;;;;;;;;;;;;;;6.39;44.90;101124.53;5012301;28;7222;-76
2023/03/02 09:08:48;;;;;;;;;;;;;;;6.47;44.54;101126.00;5010917;28;6811;-76
2023/03/02 09:11:14;;;;;;;;;;;;;;;6.55;44.38;101125.69;5011663;28;7375;-76
2023/03/02 09:13:39;;;;;;;;;;;;;;;6.62;44.57;101128.81;5013321;28;7010;-76
2023/03/02 09:16:07;;;;;;;;;;;;;;;6.71;44.65;101117.53;5027197;28;6950;-76
2023/03/02 09:18:34;;;;;;;;;;;;;;;6.83;44.26;101122.66;5010694;28;6924;-76
2023/03/02 09:21:00;;;;;;;;;;;;;;;6.92;43.85;101124.25;5014081;28;6811;-76
2023/03/02 09:23:27;;;;;;;;;;;;;;;7.03;43.95;101129.25;5009559;28;7208;-76
2023/03/02 09:25:54;;;;;;;;;;;;;;;7.12;43.81;101126.50;5012943;28;6800;-76
2023/03/02 09:28:23;;;;;;;;;;;;;;;7.20;44.03;101131.41;4991298;28;7190;-76
2023/03/02 09:30:57;;;;;;;;;;;;;;;7.31;44.39;101128.75;5011879;28;6946;-76
2023/03/02 09:33:23;;;;;;;;;;;;;;;7.37;43.21;101126.63;5012374;28;6888;-76
2023/03/02 09:35:49;;;;;;;;;;;;;;;7.45;43.13;101127.19;5018739;28;7125;-76
2023/03/02 09:38:17;;;;;;;;;;;;;;;7.51;43.08;101127.63;5014122;28;7167;-76
2023/03/02 09:40:50;;;;;;;;;;;;;;;7.60;42.02;101128.28;5014450;28;6938;-76
2023/03/02 09:43:37;;;;;;;;;;;;;;;7.69;43.03;101132.25;5015898;28;6800;-76
2023/03/02 09:46:43;;;;;;;;;;;;;;;7.79;41.49;101124.47;5028254;28;7120;-76
2023/03/02 09:49:43;;;;;;;;;;;;;;;7.89;41.33;101126.03;5014016;28;7239;-76
2023/03/02 09:52:46;;;;;;;;;;;;;;;8.00;41.36;101129.31;5009413;28;7414;-75
2023/03/02 09:55:22;;;;;;;;;;;;;;;8.05;41.71;101130.53;5009045;28;6815;-75
2023/03/02 09:57:49;;;;;;;;;;;;;;;8.10;40.96;101131.72;4998321;28;7195;-75
2023/03/02 10:00:28;;;;;;;;;;;;;;;8.14;41.89;101136.28;5013475;28;8509;-75
2023/03/02 10:03:15;;;;;;;;;;;;;;;8.17;41.14;101118.63;5010890;28;6999;-75
2023/03/02 10:05:46;;;;;;;;;;;;;;;8.25;40.89;101120.81;5007591;28;7192;-75
2023/03/02 10:08:23;;;;;;;;;;;;;;;8.32;40.91;101123.03;5014405;28;6820;-75
2023/03/02 10:11:21;;;;;;;;;;;;;;;8.39;40.60;101114.97;5026628;28;7146;-75
2023/03/02 10:14:02;;;;;;;;;;;;;;;8.46;40.11;101117.19;5015062;28;6825;-75
2023/03/02 10:16:48;;;;;;;;;;;;;;;8.55;40.46;101118.63;5023571;28;6808;-75
2023/03/02 10:19:31;;;;;;;;;;;;;;;8.63;40.71;101114.03;5013445;28;6941;-74
2023/03/02 10:22:18;;;;;;;;;;;;;;;8.70;40.66;101117.13;5012163;28;6959;-75
2023/03/02 10:25:14;;;;;;;;;;;;;;;8.82;41.03;101122.13;5014404;28;6808;-75
2023/03/02 10:27:53;;;;;;;;;;;;;;;9.03;40.65;101119.25;5014394;28;6831;-75
2023/03/02 10:30:26;;;;;;;;;;;;;;;9.81;40.13;101109.69;5012069;28;6863;-75
2023/03/02 10:33:00;;;;;;;;;;;;;;;10.98;38.98;101107.25;5015771;28;6812;-74
2023/03/02 10:35:30;;;;;;;;;;;;;;;12.06;37.41;101098.59;5015439;28;6808;-74
2023/03/02 10:38:15;;;;;;;;;;;;;;;13.07;35.82;101089.97;5018501;28;6796;-75
2023/03/02 10:41:02;;;;;;;;;;;;;;;13.87;35.53;101085.16;5012303;28;7925;-74
2023/03/02 10:43:43;;;;;;;;;;;;;;;14.66;33.32;101085.09;5009501;28;6804;-75
2023/03/02 10:46:13;;;;;;;;;;;;;;;15.25;33.43;101081.47;4998285;28;8318;-75
2023/03/02 10:48:58;;;;;;;;;;;;;;;15.84;32.11;101070.81;4998494;28;6993;-75
2023/03/02 10:51:36;;;;;;;;;;;;;;;16.28;31.41;101067.22;5005096;28;6986;-75
2023/03/02 10:54:10;;;;;;;;;;;;;;;16.78;31.11;101072.38;5007563;28;6800;-75
2023/03/02 10:56:36;;;;;;;;;;;;;;;17.15;30.34;101072.69;5009760;28;7246;-75
2023/03/02 10:59:24;;;;;;;;;;;;;;;17.35;29.38;101065.56;5021648;28;6980;-75
2023/03/02 11:02:13;;;;;;;;;;;;;;;17.66;29.17;101068.19;5012708;28;8221;-75
2023/03/02 11:04:38;;;;;;;;;;;;;;;17.85;28.88;101060.09;5013605;28;6807;-75
2023/03/02 11:07:18;;;;;;;;;;;;;;;17.93;28.42;101065.53;5010100;28;6776;-75
2023/03/02 11:10:02;;;;;;;;;;;;;;;18.11;28.24;101053.94;5015215;28;6808;-75
2023/03/02 11:12:31;;;;;;;;;;;;;;;18.15;28.54;101056.63;5027875;28;6799;-75
2023/03/02 11:15:17;;;;;;;;;;;;;;;18.26;28.02;101054.34;5025785;28;7713;-75
2023/03/02 11:17:47;;;;;;;;;;;;;;;18.37;27.98;101058.94;5013759;28;7166;-75
2023/03/02 11:20:28;;;;;;;;;;;;;;;18.44;27.65;101056.53;5000411;28;8499;-75
2023/03/02 11:23:29;;;;;;;;;;;;;;;18.49;27.33;101058.38;5012218;28;6961;-75
2023/03/02 11:26:19;;;;;;;;;;;;;;;18.50;27.16;101058.44;5008140;28;6852;-75
2023/03/02 11:29:10;;;;;;;;;;;;;;;18.65;26.96;101050.16;5013689;28;6808;-75
2023/03/02 11:31:50;;;;;;;;;;;;;;;18.72;27.03;101062.44;5007675;28;7154;-75
2023/03/02 11:34:31;;;;;;;;;;;;;;;18.79;26.75;101058.28;5007767;28;7109;-75
2023/03/02 11:37:03;;;;;;;;;;;;;;;18.99;26.90;101057.91;5012722;28;7284;-75
2023/03/02 11:39:47;;;;;;;;;;;;;;;19.31;26.12;101046.50;5006405;28;6989;-75
2023/03/02 11:42:32;;;;;;;;;;;;;;;19.52;25.64;101046.09;5011249;28;8302;-75
2023/03/02 11:45:21;;;;;;;;;;;;;;;19.65;25.58;101049.84;5011954;28;6819;-75
2023/03/02 11:47:59;;;;;;;;;;;;;;;19.75;25.29;101046.56;5010414;28;7046;-75
2023/03/02 11:50:25;;;;;;;;;;;;;;;19.76;25.25;101048.31;5010116;28;6867;-75
2023/03/02 11:52:59;;;;;;;;;;;;;;;19.66;25.30;101042.06;5013018;28;6779;-75
2023/03/02 11:55:30;;;;;;;;;;;;;;;19.61;25.14;101040.22;5028903;28;6791;-75
2023/03/02 11:58:01;;;;;;;;;;;;;;;19.70;25.21;101037.78;5007455;28;7304;-75
2023/03/02 12:00:38;;;;;;;;;;;;;;;20.01;25.08;101041.06;5024609;28;6795;-75
2023/03/02 12:03:22;;;;;;;;;;;;;;;20.33;24.63;101035.56;5012778;28;6803;-75
2023/03/02 12:05:50;;;;;;;;;;;;;;;20.47;24.62;101033.19;5008202;28;6796;-75
2023/03/02 12:08:19;;;;;;;;;;;;;;;20.45;24.43;101034.03;5027122;28;7001;-75
2023/03/02 12:11:03;;;;;;;;;;;;;;;20.49;24.25;101025.44;5012568;28;6795;-75
2023/03/02 12:13:35;;;;;;;;;;;;;;;20.40;23.86;101027.03;5012087;28;6940;-75
2023/03/02 12:16:03;;;;;;;;;;;;;;;20.50;24.22;101030.63;5004692;28;7216;-75
2023/03/02 12:18:42;;;;;;;;;;;;;;;20.52;24.01;101025.47;5006918;28;6796;-75
2023/03/02 12:21:20;;;;;;;;;;;;;;;20.61;24.58;101025.63;5009041;28;6800;-75
2023/03/02 12:23:46;;;;;;;;;;;;;;;20.68;24.06;101026.59;5012379;28;6800;-75
2023/03/02 12:26:31;;;;;;;;;;;;;;;20.82;23.75;101021.63;5014207;28;8477;-75
2023/03/02 12:29:10;;;;;;;;;;;;;;;20.89;23.78;101020.00;5012665;28;6796;-75
2023/03/02 12:31:41;;;;;;;;;;;;;;;20.81;23.93;101018.16;5013571;28;6988;-75
2023/03/02 12:34:22;;;;;;;;;;;;;;;20.45;24.43;101018.41;5017301;28;7254;-77
2023/03/02 12:36:57;;;;;;;;;;;;;;;19.53;24.42;101022.75;5016084;28;6780;-77
2023/03/02 12:40:11;;;;;;;;;;;;;;;18.30;25.69;101034.53;5029784;28;6942;-76
2023/03/02 12:43:07;;;;;;;;;;;;;;;16.90;26.25;101026.16;5017476;28;6858;-76
2023/03/02 12:46:19;;;;;;;;;;;;;;;15.94;27.56;101021.25;5018448;28;6827;-77
2023/03/02 12:48:57;;;;;;;;;;;;;;;15.27;27.57;101023.03;5017954;28;6887;-76
2023/03/02 12:51:27;;;;;;;;;;;;;;;14.81;29.00;101020.38;5031906;28;7166;-76
2023/03/02 12:54:16;;;;;;;;;;;;;;;14.48;29.16;101018.13;5019108;28;7022;-76
2023/03/02 12:56:43;;;;;;;;;;;;;;;14.26;29.64;101019.81;5014641;28;7015;-77
2023/03/02 12:59:26;;;;;;;;;;;;;;;14.03;28.71;101014.56;5009602;28;8137;-76
2023/03/02 13:02:02;;;;;;;;;;;;;;;13.83;29.78;101002.50;5011977;28;6805;-77
2023/03/02 13:04:27;;;;;;;;;;;;;;;13.69;30.09;101013.03;5029207;28;6880;-77
2023/03/02 13:06:53;;;;;;;;;;;;;;;13.61;30.53;101004.97;5010590;28;6767;-77
2023/03/02 13:09:20;;;;;;;;;;;;;;;13.53;29.84;101000.31;5029280;28;6788;-76
2023/03/02 13:11:48;;;;;;;;;;;;;;;13.49;30.49;100993.22;5016652;28;6858;-76
2023/03/02 13:14:24;;;;;;;;;;;;;;;13.47;30.26;100995.72;5014549;28;6875;-75
2023/03/02 13:17:01;;;;;;;;;;;;;;;13.43;30.55;100998.94;5012754;28;6812;-76
2023/03/02 13:19:29;;;;;;;;;;;;;;;13.40;30.71;100993.69;5028979;28;7263;-76